Time;durP1;ratioP1;P1;durP2;ratioP2;P2;SDS_P1;SDS_P2;PMS_P1;PMS_P2;Temp;Humidity;BMP_temperature;BMP_pressure;BME280_temperature;BME280_humidity;BME280_pressure;Samples;Min_cycle;Max_cycle;Signal;HPM_P1;HPM_P2
2022/02/05 00:01:15;;;;;;;2.55;1.13;;;4.70;99.90;;;;;;2107790;28;20032;-70
2022/02/05 00:02:23;;;;;;;2.53;1.15;;;4.70;99.90;;;;;;2106972;28;20042;-70
2022/02/05 00:03:39;;;;;;;2.20;1.02;;;4.70;99.90;;;;;;2098733;28;20508;-71
2022/02/05 00:04:40;;;;;;;2.90;1.08;;;4.70;99.90;;;;;;2094726;28;20040;-70
2022/02/05 00:06:47;;;;;;;3.63;1.10;;;4.70;99.90;;;;;;2097843;28;20016;-69
2022/02/05 00:07:57;;;;;;;3.35;1.30;;;4.70;99.90;;;;;;2106926;28;20031;-69
2022/02/05 00:09:08;;;;;;;3.92;1.00;;;4.70;99.90;;;;;;2107295;28;20036;-70
2022/02/05 00:10:28;;;;;;;1.40;0.93;;;4.70;99.90;;;;;;2106323;28;20031;-70
2022/02/05 00:11:59;;;;;;;3.80;1.10;;;4.70;99.90;;;;;;2097908;28;20131;-69
2022/02/05 00:13:29;;;;;;;4.18;1.00;;;4.70;99.90;;;;;;2105755;28;20032;-69
2022/02/05 00:40:52;;;;;;;1.85;0.80;;;4.90;99.90;;;;;;2086433;28;20189;-68
2022/02/05 00:42:09;;;;;;;1.02;0.80;;;4.90;99.90;;;;;;2107292;28;20035;-69
2022/02/05 00:43:14;;;;;;;0.85;0.80;;;4.90;99.90;;;;;;2099133;28;20110;-71
2022/02/05 00:44:18;;;;;;;1.27;1.13;;;4.90;99.90;;;;;;2105671;28;20058;-69
2022/02/05 00:45:18;;;;;;;1.27;0.80;;;4.90;99.90;;;;;;2106877;28;20031;-70
2022/02/05 00:46:24;;;;;;;0.95;0.80;;;4.90;99.90;;;;;;2105031;28;20063;-69
2022/02/05 00:47:26;;;;;;;0.70;0.70;;;4.90;99.90;;;;;;2105923;28;20458;-70
2022/02/05 00:48:26;;;;;;;1.52;1.00;;;4.90;99.90;;;;;;2106402;28;20106;-70
2022/02/05 00:49:27;;;;;;;1.00;0.90;;;4.90;99.90;;;;;;2105560;28;20024;-69
2022/02/05 00:50:30;;;;;;;1.63;0.80;;;4.90;99.90;;;;;;2105570;28;20439;-69
2022/02/05 00:52:32;;;;;;;1.38;0.80;;;5.00;99.90;;;;;;2106431;28;20114;-70
2022/02/05 00:53:36;;;;;;;1.05;0.90;;;5.00;99.90;;;;;;2106248;28;20024;-70
2022/02/05 00:54:39;;;;;;;0.77;0.77;;;4.90;99.90;;;;;;2097828;28;20028;-71
2022/02/05 00:55:46;;;;;;;2.60;0.98;;;4.90;99.90;;;;;;2105020;28;20053;-70
2022/02/05 00:58:06;;;;;;;1.48;0.90;;;4.90;99.90;;;;;;2103020;28;20028;-70
2022/02/05 00:59:07;;;;;;;1.30;0.93;;;4.90;99.90;;;;;;2106459;28;20048;-69
2022/02/05 01:00:08;;;;;;;1.00;0.90;;;4.90;99.90;;;;;;2106998;28;20032;-69
2022/02/05 01:01:10;;;;;;;1.10;1.00;;;5.00;99.90;;;;;;2105904;28;20020;-69
2022/02/05 01:02:11;;;;;;;1.38;0.90;;;4.90;99.90;;;;;;2105637;28;20036;-69
2022/02/05 01:03:15;;;;;;;1.13;1.00;;;4.90;99.90;;;;;;2098848;28;20021;-69
2022/02/05 01:04:16;;;;;;;2.28;0.90;;;4.90;99.90;;;;;;2108508;28;20057;-69
2022/02/05 01:05:17;;;;;;;2.20;1.00;;;4.90;99.90;;;;;;2106813;28;20395;-68
2022/02/05 01:06:18;;;;;;;3.50;1.00;;;4.90;99.90;;;;;;2113114;28;20106;-69
2022/02/05 01:07:19;;;;;;;1.63;1.00;;;4.90;99.90;;;;;;2100126;28;20025;-69
2022/02/05 01:08:20;;;;;;;1.75;1.00;;;4.90;99.90;;;;;;2100496;28;20033;-69
2022/02/05 01:09:24;;;;;;;1.83;0.90;;;4.90;99.90;;;;;;2109382;28;20024;-69
2022/02/05 01:10:26;;;;;;;1.13;0.98;;;4.90;99.90;;;;;;2106125;28;20024;-70
2022/02/05 01:11:27;;;;;;;2.10;1.00;;;4.90;99.90;;;;;;2105955;28;20460;-70
2022/02/05 01:12:31;;;;;;;1.75;1.00;;;4.90;99.90;;;;;;2107243;28;20032;-69
2022/02/05 01:13:34;;;;;;;2.97;1.00;;;4.90;99.90;;;;;;2106796;28;20017;-70
2022/02/05 01:14:45;;;;;;;1.20;1.00;;;4.90;99.90;;;;;;2107220;28;20028;-70
2022/02/05 01:15:56;;;;;;;2.85;1.10;;;4.90;99.90;;;;;;2105569;28;20664;-70
2022/02/05 01:17:04;;;;;;;1.77;1.02;;;4.90;99.90;;;;;;2105741;28;20034;-71
2022/02/05 01:18:08;;;;;;;1.90;0.80;;;4.90;99.90;;;;;;2095440;28;20039;-70
2022/02/05 01:19:16;;;;;;;1.15;0.90;;;4.90;99.90;;;;;;2105378;28;20062;-70
2022/02/05 01:21:41;;;;;;;2.47;1.00;;;4.90;99.90;;;;;;2097881;28;20534;-69
2022/02/05 01:22:44;;;;;;;2.15;0.90;;;4.90;99.90;;;;;;2106197;28;20028;-69
2022/02/05 01:23:50;;;;;;;2.78;1.00;;;4.90;99.90;;;;;;2100294;28;20072;-70
2022/02/05 01:24:53;;;;;;;1.80;0.90;;;4.90;99.90;;;;;;2091097;28;20599;-69
2022/02/05 01:26:07;;;;;;;1.85;1.15;;;4.90;99.90;;;;;;2104094;28;20031;-70
2022/02/05 01:27:13;;;;;;;2.42;1.20;;;4.80;99.90;;;;;;2099973;28;20092;-70
2022/02/05 01:28:21;;;;;;;1.50;1.00;;;4.80;99.90;;;;;;2105514;28;20097;-70
2022/02/05 01:30:31;;;;;;;1.58;1.00;;;4.80;99.90;;;;;;2098599;28;20029;-71
2022/02/05 01:31:35;;;;;;;0.93;0.90;;;4.80;99.90;;;;;;2104812;28;20040;-69
2022/02/05 01:32:38;;;;;;;2.38;1.17;;;4.80;99.90;;;;;;2104673;28;20541;-70
2022/02/05 01:33:57;;;;;;;2.72;1.10;;;4.80;99.90;;;;;;2104599;28;20023;-69
2022/02/05 01:35:27;;;;;;;3.53;1.10;;;4.80;99.90;;;;;;2105330;28;20047;-72
2022/02/05 01:50:17;;;;;;;2.05;1.30;;;4.60;99.90;;;;;;2105719;28;20518;-70
2022/02/05 01:50:52;;;;;;;;;;;4.60;99.90;;;;;;2098692;28;20429;-70
2022/02/05 01:53:23;;;;;;;3.50;1.50;;;4.60;99.90;;;;;;2105292;28;20402;-70
2022/02/05 01:55:56;;;;;;;2.33;1.30;;;4.60;99.90;;;;;;2104839;28;20028;-69
2022/02/05 01:57:04;;;;;;;2.67;1.52;;;4.60;99.90;;;;;;2105000;28;20040;-69
2022/02/05 01:59:22;;;;;;;3.38;1.40;;;4.50;99.90;;;;;;2105696;28;20070;-69
2022/02/05 02:05:52;;;;;;;2.88;1.55;;;4.60;99.90;;;;;;2105328;28;20111;-69
2022/02/05 02:10:38;;;;;;;4.43;1.70;;;4.60;99.90;;;;;;2105131;28;20115;-69
2022/02/05 02:11:51;;;;;;;5.57;1.70;;;4.60;99.90;;;;;;2105179;28;20035;-69
2022/02/05 02:15:39;;;;;;;4.50;1.58;;;4.60;99.90;;;;;;2104702;28;20035;-70
2022/02/05 02:19:05;;;;;;;7.65;1.70;;;4.60;99.90;;;;;;2105477;28;20028;-70
2022/02/05 02:21:40;;;;;;;4.88;1.70;;;4.60;99.90;;;;;;2105103;28;20539;-69
2022/02/05 02:23:00;;;;;;;5.03;1.88;;;4.60;99.90;;;;;;2105705;28;20038;-69
2022/02/05 02:24:09;;;;;;;5.47;1.83;;;4.60;99.90;;;;;;2105037;28;20028;-69
2022/02/05 02:28:12;;;;;;;3.42;1.75;;;4.60;99.90;;;;;;2074497;28;20057;-69
2022/02/05 02:29:33;;;;;;;;;;;4.50;99.90;;;;;;2106269;28;20057;-69
2022/02/05 02:30:40;;;;;;;4.78;1.65;;;4.50;99.90;;;;;;2105222;28;19914;-69
2022/02/05 02:31:44;;;;;;;5.25;1.83;;;4.50;99.90;;;;;;2104739;28;20111;-69
2022/02/05 02:32:50;;;;;;;3.40;1.70;;;4.50;99.90;;;;;;2105635;28;20064;-69
2022/02/05 02:33:54;;;;;;;6.63;1.70;;;4.40;99.90;;;;;;2105484;28;20012;-69
2022/02/05 02:35:02;;;;;;;5.32;1.90;;;4.30;99.90;;;;;;2105714;28;20012;-69
2022/02/05 02:36:08;;;;;;;4.28;1.55;;;4.30;99.90;;;;;;2104652;28;20032;-69
2022/02/05 02:37:11;;;;;;;5.25;1.90;;;4.30;99.90;;;;;;2105123;28;20558;-69
2022/02/05 02:38:15;;;;;;;5.53;1.92;;;4.30;99.90;;;;;;2105224;28;20024;-69
2022/02/05 02:39:21;;;;;;;5.70;2.22;;;4.30;99.90;;;;;;2097207;28;20709;-69
2022/02/05 02:41:40;;;;;;;5.63;1.83;;;4.30;99.90;;;;;;2105310;28;20133;-69
2022/02/05 02:42:44;;;;;;;5.85;1.90;;;4.30;99.90;;;;;;2105361;28;20115;-69
2022/02/05 02:43:45;;;;;;;4.63;2.22;;;4.30;99.90;;;;;;2105434;28;20035;-69
2022/02/05 02:44:46;;;;;;;4.57;1.88;;;4.30;99.90;;;;;;2106909;28;20067;-69
2022/02/05 02:45:46;;;;;;;4.65;2.00;;;4.20;99.90;;;;;;2110416;28;20032;-69
2022/02/05 02:46:47;;;;;;;4.85;1.90;;;4.20;99.90;;;;;;2111444;28;20423;-70
2022/02/05 02:47:48;;;;;;;5.57;1.83;;;4.20;99.90;;;;;;2112554;28;20024;-69
2022/02/05 02:48:50;;;;;;;5.78;2.05;;;4.20;99.90;;;;;;2112350;28;20028;-69
2022/02/05 02:50:00;;;;;;;6.82;2.17;;;4.10;99.90;;;;;;2112101;28;20056;-69
2022/02/05 02:57:39;;;;;;;7.35;2.13;;;4.00;99.90;;;;;;2109100;28;20039;-70
2022/02/05 02:58:41;;;;;;;6.63;2.40;;;3.90;99.90;;;;;;2100792;28;20024;-70
2022/02/05 02:59:58;;;;;;;4.95;2.08;;;3.90;99.90;;;;;;2109291;28;20022;-70
2022/02/05 03:01:00;;;;;;;6.28;2.40;;;3.90;99.90;;;;;;2109436;28;20127;-70
2022/02/05 03:02:12;;;;;;;6.13;2.50;;;3.90;99.90;;;;;;2108902;28;20058;-70
2022/02/05 03:03:13;;;;;;;6.22;2.13;;;3.90;99.90;;;;;;2109055;28;20024;-70
2022/02/05 03:04:13;;;;;;;5.50;2.17;;;3.90;99.90;;;;;;2109482;28;20032;-71
2022/02/05 03:05:14;;;;;;;6.78;2.25;;;3.80;99.90;;;;;;2099113;28;20035;-70
2022/02/05 03:06:14;;;;;;;5.97;2.35;;;3.80;99.90;;;;;;2088871;28;20029;-70
2022/02/05 03:07:15;;;;;;;6.43;2.20;;;3.80;99.90;;;;;;2106437;28;20490;-70
2022/02/05 03:08:16;;;;;;;8.18;2.53;;;3.80;99.90;;;;;;2098088;28;20636;-70
2022/02/05 03:09:17;;;;;;;7.45;2.63;;;3.80;99.90;;;;;;2098713;28;20680;-70
2022/02/05 03:10:18;;;;;;;8.52;2.60;;;3.70;99.90;;;;;;2107113;28;20501;-69
2022/02/05 03:11:19;;;;;;;5.13;2.10;;;3.80;99.90;;;;;;2106661;28;20020;-69
2022/02/05 03:12:20;;;;;;;8.45;2.60;;;3.80;99.90;;;;;;2106677;28;20032;-69
2022/02/05 03:13:21;;;;;;;8.85;2.50;;;3.80;99.90;;;;;;2106671;28;20535;-69
2022/02/05 03:14:22;;;;;;;11.25;2.70;;;3.80;99.90;;;;;;2107278;28;20085;-68
2022/02/05 03:15:23;;;;;;;5.90;2.20;;;3.80;99.90;;;;;;2107289;28;20078;-68
2022/02/05 03:16:27;;;;;;;9.52;2.60;;;3.80;99.90;;;;;;2098160;28;20475;-69
2022/02/05 03:17:36;;;;;;;11.88;2.70;;;3.80;99.90;;;;;;2098710;28;20108;-68
2022/02/05 03:18:50;;;;;;;9.10;2.95;;;3.70;99.90;;;;;;2106423;28;20688;-68
2022/02/05 03:19:52;;;;;;;7.03;2.80;;;3.70;99.90;;;;;;2106707;28;20032;-69
2022/02/05 03:20:53;;;;;;;6.18;2.85;;;3.70;99.90;;;;;;2098449;28;20031;-70
2022/02/05 03:21:54;;;;;;;6.45;2.63;;;3.70;99.90;;;;;;2097599;28;20506;-70
2022/02/05 03:22:54;;;;;;;8.85;2.90;;;3.70;99.90;;;;;;2097860;28;20020;-70
2022/02/05 03:23:55;;;;;;;6.93;2.70;;;3.70;99.90;;;;;;2106332;28;20433;-70
2022/02/05 03:24:55;;;;;;;6.55;2.78;;;3.70;99.90;;;;;;2107056;28;20024;-69
2022/02/05 03:25:56;;;;;;;7.78;2.85;;;3.70;99.90;;;;;;2105574;28;20074;-70
2022/02/05 03:26:57;;;;;;;8.05;2.72;;;3.70;99.90;;;;;;2106049;28;20043;-70
2022/02/05 03:27:58;;;;;;;11.18;3.15;;;3.70;99.90;;;;;;2106979;28;20060;-70
2022/02/05 03:28:59;;;;;;;8.82;3.00;;;3.70;99.90;;;;;;2106309;28;20032;-71
2022/02/05 03:30:00;;;;;;;8.77;3.00;;;3.70;99.90;;;;;;2097623;28;20025;-71
2022/02/05 03:31:00;;;;;;;6.55;2.95;;;3.70;99.90;;;;;;2106005;28;20081;-71
2022/02/05 03:32:01;;;;;;;9.30;3.30;;;3.60;99.90;;;;;;2097293;28;20438;-71
2022/02/05 03:33:02;;;;;;;8.85;3.30;;;3.70;99.90;;;;;;2089536;28;20064;-72
2022/02/05 03:34:04;;;;;;;10.68;3.30;;;3.70;99.90;;;;;;2097700;28;20060;-70
2022/02/05 03:35:05;;;;;;;7.90;3.08;;;3.70;99.90;;;;;;2106102;28;20070;-70
2022/02/05 03:36:08;;;;;;;7.07;3.05;;;3.60;99.90;;;;;;2106399;28;20055;-69
2022/02/05 03:37:09;;;;;;;11.07;3.00;;;3.60;99.90;;;;;;2101104;28;20028;-69
2022/02/05 03:38:10;;;;;;;9.05;3.05;;;3.60;99.90;;;;;;2102264;28;20041;-69
2022/02/05 03:39:10;;;;;;;8.38;2.97;;;3.60;99.90;;;;;;2119682;28;20019;-69
2022/02/05 03:40:12;;;;;;;8.45;2.97;;;3.60;99.90;;;;;;2112039;28;20035;-69
2022/02/05 03:41:12;;;;;;;7.18;2.65;;;3.60;99.90;;;;;;2113607;28;20051;-69
2022/02/05 03:42:14;;;;;;;9.77;3.00;;;3.60;99.90;;;;;;2114869;28;20028;-70
2022/02/05 03:43:14;;;;;;;5.40;2.80;;;3.70;99.90;;;;;;2114357;28;20054;-70
2022/02/05 03:44:15;;;;;;;9.20;2.80;;;3.70;99.90;;;;;;2113814;28;20039;-69
2022/02/05 03:45:16;;;;;;;7.30;2.70;;;3.70;99.90;;;;;;2114584;28;20028;-70
2022/02/05 03:46:16;;;;;;;9.75;2.80;;;3.70;99.90;;;;;;2114067;28;20021;-70
2022/02/05 03:47:17;;;;;;;6.95;2.75;;;3.70;99.90;;;;;;2113051;28;20028;-69
2022/02/05 03:48:17;;;;;;;7.15;2.97;;;3.80;99.90;;;;;;2113545;28;20058;-69
2022/02/05 03:49:19;;;;;;;8.68;2.85;;;3.80;99.90;;;;;;2114015;28;20599;-70
2022/02/05 03:50:20;;;;;;;8.75;2.88;;;3.80;99.90;;;;;;2113258;28;20058;-70
2022/02/05 03:51:20;;;;;;;6.32;2.60;;;3.80;99.90;;;;;;2113896;28;20098;-69
2022/02/05 03:52:21;;;;;;;8.07;2.80;;;3.80;99.90;;;;;;2111956;28;20118;-70
2022/02/05 03:53:21;;;;;;;8.00;3.10;;;3.90;99.90;;;;;;2113294;28;20078;-70
2022/02/05 03:54:24;;;;;;;5.95;2.90;;;3.90;99.90;;;;;;2104537;28;20040;-71
2022/02/05 03:55:25;;;;;;;7.28;2.80;;;3.90;99.90;;;;;;2112902;28;20600;-69
2022/02/05 03:56:26;;;;;;;6.82;3.03;;;3.80;99.90;;;;;;2102832;28;20108;-71
2022/02/05 03:57:26;;;;;;;6.68;2.75;;;3.80;99.90;;;;;;2098891;28;20039;-70
2022/02/05 03:58:27;;;;;;;9.18;2.67;;;3.80;99.90;;;;;;2106816;28;20036;-70
2022/02/05 03:59:28;;;;;;;6.95;3.00;;;3.80;99.90;;;;;;2107196;28;20032;-70
2022/02/05 04:00:28;;;;;;;8.90;3.03;;;3.70;99.90;;;;;;2106378;28;20153;-69
2022/02/05 04:01:29;;;;;;;9.23;3.03;;;3.70;99.90;;;;;;2098068;28;20025;-70
2022/02/05 04:02:29;;;;;;;8.07;2.95;;;3.70;99.90;;;;;;2106201;28;20141;-71
2022/02/05 04:03:30;;;;;;;5.72;2.65;;;3.70;99.90;;;;;;2106011;28;20437;-70
2022/02/05 04:04:31;;;;;;;7.05;2.95;;;3.70;99.90;;;;;;2097838;28;20822;-71
2022/02/05 04:05:31;;;;;;;7.32;3.03;;;3.70;99.90;;;;;;2105667;28;20032;-70
2022/02/05 04:06:32;;;;;;;8.52;2.70;;;3.70;99.90;;;;;;2106240;28;20024;-70
2022/02/05 04:07:37;;;;;;;5.45;2.72;;;3.70;99.90;;;;;;2105964;28;20028;-71
2022/02/05 04:08:37;;;;;;;4.65;2.70;;;3.70;99.90;;;;;;2105938;28;20035;-71
2022/02/05 04:09:41;;;;;;;6.70;3.00;;;3.70;99.90;;;;;;2097510;28;20475;-70
2022/02/05 04:10:58;;;;;;;7.10;2.90;;;3.70;99.90;;;;;;2105924;28;20036;-71
2022/02/05 04:16:07;;;;;;;7.78;3.05;;;3.60;99.90;;;;;;2106022;28;20108;-70
2022/02/05 04:17:08;;;;;;;6.40;2.75;;;3.60;99.90;;;;;;2105835;28;20062;-70
2022/02/05 04:18:09;;;;;;;5.97;2.78;;;3.60;99.90;;;;;;2105991;28;20059;-70
2022/02/05 04:19:10;;;;;;;7.80;2.90;;;3.60;99.90;;;;;;2105448;28;20596;-71
2022/02/05 04:20:10;;;;;;;8.13;3.17;;;3.60;99.90;;;;;;2105646;28;20033;-70
2022/02/05 04:21:11;;;;;;;7.18;2.80;;;3.60;99.90;;;;;;2105533;28;20511;-70
2022/02/05 04:22:11;;;;;;;7.07;3.03;;;3.60;99.90;;;;;;2104948;28;20039;-70
2022/02/05 04:23:13;;;;;;;4.22;2.85;;;3.70;99.90;;;;;;2106113;28;20055;-70
2022/02/05 04:24:14;;;;;;;6.88;2.90;;;3.70;99.90;;;;;;2106339;28;20024;-71
2022/02/05 04:25:14;;;;;;;7.60;2.97;;;3.70;99.90;;;;;;2105930;28;20034;-70
2022/02/05 04:26:16;;;;;;;10.80;3.20;;;3.80;99.90;;;;;;2105760;28;20500;-70
2022/02/05 04:27:16;;;;;;;7.22;3.17;;;3.80;99.90;;;;;;2106304;28;20024;-69
2022/02/05 04:28:17;;;;;;;7.03;2.75;;;3.80;99.90;;;;;;2106913;28;20444;-70
2022/02/05 04:29:17;;;;;;;8.82;3.00;;;3.90;99.90;;;;;;2106967;28;20031;-71
2022/02/05 04:30:18;;;;;;;5.18;3.03;;;3.90;99.90;;;;;;2107552;28;20039;-70
2022/02/05 04:31:21;;;;;;;7.80;3.17;;;3.90;99.90;;;;;;2106969;28;20020;-70
2022/02/05 04:32:22;;;;;;;10.30;3.65;;;3.90;99.90;;;;;;2107197;28;20017;-70
2022/02/05 04:33:22;;;;;;;8.05;3.40;;;3.90;99.90;;;;;;2106598;28;20040;-71
2022/02/05 04:34:24;;;;;;;8.75;3.17;;;4.00;99.90;;;;;;2106103;28;20088;-70
2022/02/05 04:35:24;;;;;;;8.55;3.38;;;4.00;99.90;;;;;;2105885;28;20115;-70
2022/02/05 04:36:25;;;;;;;6.38;3.03;;;4.00;99.90;;;;;;2106818;28;20040;-70
2022/02/05 04:37:28;;;;;;;6.25;3.50;;;4.00;99.90;;;;;;2106770;28;20495;-70
2022/02/05 04:38:29;;;;;;;9.80;3.95;;;4.00;99.90;;;;;;2106372;28;20540;-70
2022/02/05 04:39:31;;;;;;;8.75;3.60;;;4.00;99.90;;;;;;2105868;28;20076;-70
2022/02/05 04:40:52;;;;;;;7.07;3.28;;;4.10;99.90;;;;;;2097361;28;20548;-71
2022/02/05 04:42:04;;;;;;;5.22;3.13;;;4.10;99.90;;;;;;2105775;28;20020;-70
2022/02/05 04:45:38;;;;;;;7.30;3.58;;;4.10;99.90;;;;;;2106323;28;20051;-70
2022/02/05 04:51:14;;;;;;;8.20;3.65;;;4.10;99.90;;;;;;2106157;28;20145;-69
2022/02/05 04:52:36;;;;;;;8.98;3.75;;;4.10;99.90;;;;;;2106090;28;20036;-68
2022/02/05 04:56:26;;;;;;;7.32;3.55;;;4.10;99.90;;;;;;2105980;28;20055;-69
2022/02/05 04:57:45;;;;;;;9.23;3.90;;;4.10;99.90;;;;;;2106120;28;20032;-69
2022/02/05 05:01:49;;;;;;;6.82;3.60;;;4.10;99.90;;;;;;2105024;28;19908;-70
2022/02/05 05:04:22;;;;;;;8.23;3.63;;;4.10;99.90;;;;;;2088143;28;20126;-70
2022/02/05 05:05:39;;;;;;;7.18;3.40;;;4.10;99.90;;;;;;2104910;28;20040;-69
2022/02/05 05:08:34;;;;;;;6.47;3.35;;;4.10;99.90;;;;;;2105856;28;20132;-68
2022/02/05 05:12:19;;;;;;;9.77;3.80;;;4.10;99.90;;;;;;2105339;28;20035;-71
2022/02/05 05:13:36;;;;;;;7.70;3.80;;;4.10;99.90;;;;;;2105748;28;20024;-69
2022/02/05 05:19:55;;;;;;;9.18;3.63;;;4.20;99.90;;;;;;2105613;28;20039;-68
2022/02/05 05:20:56;;;;;;;8.35;3.60;;;4.10;99.90;;;;;;2105608;28;20557;-69
2022/02/05 05:22:00;;;;;;;6.28;3.45;;;4.10;99.90;;;;;;2105564;28;20032;-68
2022/02/05 05:23:00;;;;;;;8.43;3.30;;;4.10;99.90;;;;;;2105712;28;20044;-69
2022/02/05 05:24:01;;;;;;;7.53;3.22;;;4.10;99.90;;;;;;2105605;28;20051;-69
2022/02/05 05:25:02;;;;;;;6.40;3.60;;;4.10;99.90;;;;;;2105861;28;20838;-69
2022/02/05 05:26:02;;;;;;;7.93;3.70;;;4.10;99.90;;;;;;2105285;28;20690;-70
2022/02/05 05:27:03;;;;;;;8.95;3.50;;;4.10;99.90;;;;;;2105803;28;20032;-70
2022/02/05 05:28:04;;;;;;;5.43;3.38;;;4.10;99.90;;;;;;2105018;28;20032;-70
2022/02/05 05:29:05;;;;;;;7.70;3.40;;;4.00;99.90;;;;;;2096150;28;20495;-70
2022/02/05 05:30:06;;;;;;;7.57;3.55;;;4.00;99.90;;;;;;2105170;28;20024;-70
2022/02/05 05:31:07;;;;;;;11.77;3.50;;;4.00;99.90;;;;;;2105515;28;20032;-70
2022/02/05 05:32:08;;;;;;;7.55;3.42;;;4.00;99.90;;;;;;2105398;28;20119;-70
2022/02/05 05:33:09;;;;;;;7.20;3.47;;;3.90;99.90;;;;;;2105507;28;20060;-70
2022/02/05 05:34:09;;;;;;;7.72;3.60;;;3.90;99.90;;;;;;2106227;28;20063;-70
2022/02/05 05:35:10;;;;;;;8.10;3.20;;;3.90;99.90;;;;;;2105705;28;20023;-69
2022/02/05 05:36:10;;;;;;;7.32;3.35;;;3.90;99.90;;;;;;2104460;28;20384;-70
2022/02/05 05:37:11;;;;;;;7.55;3.42;;;3.80;99.90;;;;;;2105208;28;20055;-70
2022/02/05 05:38:12;;;;;;;7.13;3.42;;;3.80;99.90;;;;;;2105024;28;20470;-69
2022/02/05 05:39:13;;;;;;;9.85;3.67;;;3.70;99.90;;;;;;2104885;28;20518;-70
2022/02/05 05:40:15;;;;;;;6.97;3.45;;;3.70;99.90;;;;;;2096642;28;20645;-69
2022/02/05 05:41:15;;;;;;;8.48;3.80;;;3.70;99.90;;;;;;2096560;28;20021;-70
2022/02/05 05:42:22;;;;;;;7.80;3.72;;;3.70;99.90;;;;;;2105487;28;20395;-70
2022/02/05 05:43:37;;;;;;;9.13;3.70;;;3.70;99.90;;;;;;2105189;28;20171;-70
2022/02/05 05:45:02;;;;;;;8.35;3.58;;;3.60;99.90;;;;;;2105391;28;20664;-71
2022/02/05 05:46:14;;;;;;;7.72;3.92;;;3.60;99.90;;;;;;2105108;28;20024;-69
2022/02/05 05:47:20;;;;;;;7.78;3.70;;;3.60;99.90;;;;;;2096573;28;20637;-69
2022/02/05 05:48:29;;;;;;;5.95;3.70;;;3.60;99.90;;;;;;2097248;28;20063;-71
2022/02/05 05:49:56;;;;;;;8.43;3.72;;;3.60;99.90;;;;;;2105179;28;20016;-70
2022/02/05 05:50:58;;;;;;;8.13;3.83;;;3.50;99.90;;;;;;2105221;28;20042;-70
2022/02/05 05:51:59;;;;;;;8.95;4.00;;;3.50;99.90;;;;;;2096381;28;20115;-69
2022/02/05 05:53:00;;;;;;;6.78;3.70;;;3.50;99.90;;;;;;2096440;28;20115;-69
2022/02/05 05:54:00;;;;;;;7.40;3.80;;;3.50;99.90;;;;;;2104964;28;20042;-69
2022/02/05 05:55:01;;;;;;;9.68;4.20;;;3.50;99.90;;;;;;2096996;28;20491;-69
2022/02/05 05:56:03;;;;;;;8.40;4.00;;;3.50;99.90;;;;;;2104724;28;20415;-68
2022/02/05 05:57:04;;;;;;;7.05;3.80;;;3.50;99.90;;;;;;2105864;28;20383;-69
2022/02/05 05:58:05;;;;;;;6.72;3.80;;;3.50;99.90;;;;;;2105400;28;20055;-69
2022/02/05 05:59:06;;;;;;;9.55;4.15;;;3.50;99.90;;;;;;2105060;28;20034;-69
2022/02/05 06:00:07;;;;;;;7.95;4.07;;;3.50;99.90;;;;;;2105523;28;20048;-69
2022/02/05 06:01:07;;;;;;;10.25;4.47;;;3.40;99.90;;;;;;2105400;28;20039;-69
2022/02/05 06:02:09;;;;;;;8.52;4.40;;;3.40;99.90;;;;;;2104853;28;20032;-69
2022/02/05 06:03:11;;;;;;;8.45;4.10;;;3.40;99.90;;;;;;2104660;28;20047;-69
2022/02/05 06:04:12;;;;;;;9.20;4.45;;;3.40;99.90;;;;;;2104750;28;20036;-69
2022/02/05 06:05:12;;;;;;;7.80;4.20;;;3.30;99.90;;;;;;2105099;28;20405;-69
2022/02/05 06:06:13;;;;;;;7.05;4.07;;;3.30;99.90;;;;;;2105032;28;20036;-69
2022/02/05 06:07:14;;;;;;;8.80;4.38;;;3.30;99.90;;;;;;2104594;28;20063;-69
2022/02/05 06:08:15;;;;;;;9.02;4.18;;;3.30;99.90;;;;;;2104831;28;20028;-69
2022/02/05 06:09:16;;;;;;;6.88;4.40;;;3.30;99.90;;;;;;2105271;28;20032;-69
2022/02/05 06:10:17;;;;;;;7.57;4.20;;;3.20;99.90;;;;;;2105544;28;20028;-69
2022/02/05 06:11:17;;;;;;;7.05;3.83;;;3.20;99.90;;;;;;2105368;28;20032;-69
2022/02/05 06:12:18;;;;;;;8.02;4.22;;;3.30;99.90;;;;;;2105037;28;20092;-69
2022/02/05 06:13:19;;;;;;;8.25;4.47;;;3.30;99.90;;;;;;2105445;28;20032;-69
2022/02/05 06:14:23;;;;;;;8.45;4.28;;;3.30;99.90;;;;;;2104622;28;20098;-69
2022/02/05 06:15:24;;;;;;;7.43;4.38;;;3.30;99.90;;;;;;2104245;28;20028;-70
2022/02/05 06:16:30;;;;;;;12.57;4.43;;;3.30;99.90;;;;;;2104864;28;20028;-69
2022/02/05 06:17:30;;;;;;;7.57;4.50;;;3.30;99.90;;;;;;2104850;28;20357;-69
2022/02/05 06:18:31;;;;;;;10.77;4.70;;;3.30;99.90;;;;;;2105365;28;20077;-69
2022/02/05 06:19:32;;;;;;;6.88;4.30;;;3.30;99.90;;;;;;2105424;28;20031;-69
2022/02/05 06:20:32;;;;;;;8.27;4.35;;;3.30;99.90;;;;;;2104700;28;20069;-69
2022/02/05 06:21:33;;;;;;;9.55;4.00;;;3.30;99.90;;;;;;2104411;28;20043;-69
2022/02/05 06:22:34;;;;;;;8.25;4.60;;;3.30;99.90;;;;;;2105320;28;20032;-71
2022/02/05 06:23:35;;;;;;;9.63;4.80;;;3.30;99.90;;;;;;2104634;28;20384;-69
2022/02/05 06:24:36;;;;;;;7.35;4.45;;;3.40;99.90;;;;;;2096337;28;20039;-69
2022/02/05 06:25:38;;;;;;;8.48;4.10;;;3.40;99.90;;;;;;2104450;28;20479;-69
2022/02/05 06:26:38;;;;;;;10.00;4.32;;;3.40;99.90;;;;;;2104516;28;20040;-69
2022/02/05 06:27:39;;;;;;;12.52;4.57;;;3.40;99.90;;;;;;2104717;28;20032;-70
2022/02/05 06:28:40;;;;;;;6.30;4.20;;;3.50;99.90;;;;;;2104600;28;20028;-70
2022/02/05 06:29:40;;;;;;;9.18;4.20;;;3.50;99.90;;;;;;2104834;28;20484;-70
2022/02/05 06:30:42;;;;;;;8.68;4.40;;;3.50;99.90;;;;;;2105997;28;20027;-70
2022/02/05 06:31:42;;;;;;;10.63;4.30;;;3.60;99.90;;;;;;2104923;28;20574;-71
2022/02/05 06:32:43;;;;;;;9.95;4.28;;;3.60;99.90;;;;;;2105177;28;20032;-69
2022/02/05 06:33:44;;;;;;;7.95;4.18;;;3.60;99.90;;;;;;2105818;28;20048;-70
2022/02/05 06:34:45;;;;;;;9.75;4.57;;;3.70;99.90;;;;;;2106158;28;20119;-71
2022/02/05 06:35:45;;;;;;;10.95;4.53;;;3.70;99.90;;;;;;2105723;28;20024;-70
2022/02/05 06:36:46;;;;;;;8.38;4.43;;;3.70;99.90;;;;;;2106301;28;20034;-71
2022/02/05 06:37:47;;;;;;;9.23;4.68;;;3.80;99.90;;;;;;2106341;28;20127;-71
2022/02/05 06:38:48;;;;;;;9.27;4.60;;;3.80;99.90;;;;;;2106301;28;20042;-73
2022/02/05 06:39:49;;;;;;;7.85;4.40;;;3.70;99.90;;;;;;2106415;28;20043;-70
2022/02/05 06:40:50;;;;;;;8.35;4.53;;;3.80;99.90;;;;;;2106445;28;20031;-70
2022/02/05 06:41:51;;;;;;;6.45;4.22;;;3.80;99.90;;;;;;2098040;28;20075;-69
2022/02/05 06:42:51;;;;;;;8.77;4.30;;;3.80;99.90;;;;;;2106645;28;20027;-70
2022/02/05 06:43:52;;;;;;;6.68;4.22;;;3.80;99.90;;;;;;2107041;28;20387;-70
2022/02/05 06:44:52;;;;;;;7.45;4.47;;;3.90;99.90;;;;;;2106887;28;20035;-70
2022/02/05 06:45:53;;;;;;;10.13;4.25;;;3.90;99.90;;;;;;2106580;28;20035;-69
2022/02/05 06:46:54;;;;;;;9.27;4.60;;;3.90;99.90;;;;;;2106864;28;20470;-71
2022/02/05 06:47:54;;;;;;;6.90;4.32;;;4.00;99.90;;;;;;2106920;28;20028;-71
2022/02/05 06:48:55;;;;;;;7.38;4.00;;;3.90;99.90;;;;;;2106911;28;20028;-71
2022/02/05 06:49:55;;;;;;;9.95;4.10;;;4.00;99.90;;;;;;2106446;28;20069;-71
2022/02/05 06:50:56;;;;;;;6.15;4.20;;;4.00;99.90;;;;;;2106965;28;20111;-69
2022/02/05 06:51:57;;;;;;;5.97;4.43;;;4.00;99.90;;;;;;2105724;28;20576;-71
2022/02/05 06:52:58;;;;;;;7.38;4.00;;;4.00;99.90;;;;;;2106288;28;20059;-71
2022/02/05 06:53:58;;;;;;;8.80;4.10;;;4.00;99.90;;;;;;2097986;28;20024;-70
2022/02/05 06:54:59;;;;;;;8.07;4.30;;;4.00;99.90;;;;;;2097942;28;20542;-70
2022/02/05 06:56:00;;;;;;;8.90;4.18;;;4.00;99.90;;;;;;2106634;28;20475;-70
2022/02/05 06:57:01;;;;;;;9.20;4.18;;;4.00;99.90;;;;;;2107234;28;20081;-70
2022/02/05 06:58:02;;;;;;;6.85;4.15;;;4.00;99.90;;;;;;2106434;28;20522;-71
2022/02/05 06:59:02;;;;;;;9.40;4.10;;;4.00;99.90;;;;;;2106542;28;20024;-70
2022/02/05 07:00:07;;;;;;;7.95;4.40;;;4.10;99.90;;;;;;2107379;28;20039;-71
2022/02/05 07:01:08;;;;;;;8.18;4.05;;;4.10;99.90;;;;;;2107038;28;20036;-70
2022/02/05 07:02:08;;;;;;;8.68;3.90;;;4.00;99.90;;;;;;2106778;28;20157;-70
2022/02/05 07:03:11;;;;;;;7.25;3.97;;;4.10;99.90;;;;;;2106841;28;20056;-70
2022/02/05 07:04:11;;;;;;;8.20;4.10;;;4.10;99.90;;;;;;2106893;28;20381;-71
2022/02/05 07:05:12;;;;;;;8.43;4.05;;;4.10;99.90;;;;;;2106245;28;20058;-70
2022/02/05 07:06:13;;;;;;;7.72;3.97;;;4.10;99.90;;;;;;2106468;28;20042;-70
2022/02/05 07:07:14;;;;;;;8.23;4.25;;;4.10;99.90;;;;;;2107248;28;20043;-70
2022/02/05 07:08:14;;;;;;;6.78;3.97;;;4.10;99.90;;;;;;2107074;28;20056;-70
2022/02/05 07:09:15;;;;;;;6.38;4.05;;;4.10;99.90;;;;;;2107067;28;20510;-70
2022/02/05 07:10:16;;;;;;;7.13;4.32;;;4.10;99.90;;;;;;2107110;28;20082;-70
2022/02/05 07:11:17;;;;;;;9.15;4.75;;;4.10;99.90;;;;;;2098106;28;20028;-68
2022/02/05 07:12:18;;;;;;;10.82;4.63;;;4.10;99.90;;;;;;2097640;28;20025;-71
2022/02/05 07:13:20;;;;;;;5.97;4.20;;;4.10;99.90;;;;;;2106183;28;20035;-67
2022/02/05 07:14:24;;;;;;;7.93;3.85;;;4.10;99.90;;;;;;2106982;28;20546;-68
2022/02/05 07:15:29;;;;;;;7.70;3.90;;;4.20;99.90;;;;;;2106436;28;20090;-72
2022/02/05 07:16:35;;;;;;;8.07;4.13;;;4.20;99.90;;;;;;2106361;28;20047;-69
2022/02/05 07:17:48;;;;;;;6.53;4.18;;;4.20;99.90;;;;;;2106246;28;20019;-68
2022/02/05 07:19:13;;;;;;;9.30;4.07;;;4.20;99.90;;;;;;2106878;28;20077;-73
2022/02/05 07:21:49;;;;;;;8.25;3.75;;;4.20;99.90;;;;;;2093043;28;20572;-73